Time;durP1;ratioP1;P1;durP2;ratioP2;P2;SDS_P1;SDS_P2;PMS_P1;PMS_P2;Temp;Humidity;BMP_temperature;BMP_pressure;BME280_temperature;BME280_humidity;BME280_pressure;Samples;Min_cycle;Max_cycle;Signal;HPM_P1;HPM_P2
2021/03/10 00:00:21;;;;;;;23.52;13.45;;;8.60;70.20;;;;;;5115960;28;20024;-70
2021/03/10 00:02:46;;;;;;;23.65;12.38;;;8.60;70.00;;;;;;5115875;28;20035;-69
2021/03/10 00:05:15;;;;;;;21.25;12.77;;;8.60;69.90;;;;;;5114799;28;20019;-70
2021/03/10 00:07:41;;;;;;;19.17;11.32;;;8.60;69.90;;;;;;5115669;28;20032;-70
2021/03/10 00:10:08;;;;;;;19.33;11.25;;;8.60;69.90;;;;;;5115470;28;20054;-70
2021/03/10 00:12:34;;;;;;;21.27;10.52;;;8.60;69.60;;;;;;5115168;28;20034;-69
2021/03/10 00:15:00;;;;;;;22.23;10.77;;;8.60;69.60;;;;;;5115508;28;20028;-69
2021/03/10 00:17:26;;;;;;;19.77;11.98;;;8.60;69.80;;;;;;5115578;28;20026;-69
2021/03/10 00:19:51;;;;;;;18.67;11.88;;;8.60;69.70;;;;;;5114789;27;20471;-69
2021/03/10 00:22:17;;;;;;;19.02;11.75;;;8.60;69.50;;;;;;5115260;28;20363;-69
2021/03/10 00:24:43;;;;;;;23.33;11.88;;;8.60;69.40;;;;;;5115306;28;20039;-69
2021/03/10 00:27:09;;;;;;;18.33;11.45;;;8.60;69.30;;;;;;5113139;28;20478;-69
2021/03/10 00:29:35;;;;;;;20.00;12.00;;;8.60;69.10;;;;;;5115181;28;20097;-69
2021/03/10 00:32:01;;;;;;;19.58;11.57;;;8.60;68.90;;;;;;5114605;28;20062;-70
2021/03/10 00:34:26;;;;;;;22.88;11.50;;;8.60;68.70;;;;;;5115278;28;20553;-70
2021/03/10 00:36:55;;;;;;;20.95;12.43;;;8.70;68.70;;;;;;5101186;28;20047;-69
2021/03/10 00:39:20;;;;;;;21.25;11.10;;;8.70;68.70;;;;;;5113739;28;20740;-70
2021/03/10 00:41:46;;;;;;;20.17;10.50;;;8.70;68.70;;;;;;5114927;28;20085;-70
2021/03/10 00:44:12;;;;;;;22.70;12.05;;;8.60;68.80;;;;;;5100191;28;20038;-69
2021/03/10 00:46:37;;;;;;;18.63;10.55;;;8.70;69.00;;;;;;5114149;28;20020;-69
2021/03/10 00:49:03;;;;;;;21.48;12.77;;;8.70;69.00;;;;;;5114822;28;20104;-69
2021/03/10 00:51:29;;;;;;;20.02;12.00;;;8.70;69.00;;;;;;5114582;28;20522;-69
2021/03/10 00:53:54;;;;;;;21.52;11.98;;;8.70;69.10;;;;;;5112866;28;20034;-69
2021/03/10 00:56:20;;;;;;;20.42;11.82;;;8.70;69.00;;;;;;5114777;28;20462;-69
2021/03/10 00:58:49;;;;;;;37.15;11.27;;;8.70;69.00;;;;;;5114786;27;20485;-70
2021/03/10 01:01:15;;;;;;;20.60;11.50;;;8.70;68.90;;;;;;5113857;28;20501;-70
2021/03/10 01:03:40;;;;;;;19.20;11.02;;;8.70;68.80;;;;;;5114423;28;20023;-70
2021/03/10 01:06:06;;;;;;;20.15;11.27;;;8.70;68.90;;;;;;5114537;28;20480;-69
2021/03/10 01:08:32;;;;;;;19.92;11.55;;;8.70;68.90;;;;;;5113068;27;20371;-70
2021/03/10 01:11:00;;;;;;;20.15;11.10;;;8.60;68.90;;;;;;5114561;28;20027;-69
2021/03/10 01:13:29;;;;;;;20.63;11.38;;;8.70;68.90;;;;;;5114333;28;20039;-69
2021/03/10 01:15:54;;;;;;;17.60;9.48;;;8.70;68.90;;;;;;5113455;28;20037;-69
2021/03/10 01:18:20;;;;;;;15.23;9.77;;;8.70;69.10;;;;;;5099702;28;20119;-69
2021/03/10 01:20:46;;;;;;;16.73;10.55;;;8.70;69.30;;;;;;5113159;28;20023;-69
2021/03/10 01:23:11;;;;;;;22.60;11.60;;;8.60;69.40;;;;;;5113529;28;20110;-69
2021/03/10 01:25:37;;;;;;;18.13;10.48;;;8.60;69.50;;;;;;5114172;28;20547;-69
2021/03/10 01:28:03;;;;;;;18.83;9.40;;;8.60;69.60;;;;;;5113978;28;20490;-70
2021/03/10 01:30:28;;;;;;;18.63;11.65;;;8.60;70.30;;;;;;5111998;28;20042;-69
2021/03/10 01:32:56;;;;;;;18.98;10.85;;;8.60;69.70;;;;;;5113927;28;20455;-69
2021/03/10 01:35:21;;;;;;;23.90;11.70;;;8.60;69.80;;;;;;5113149;28;20027;-69
2021/03/10 01:37:47;;;;;;;18.13;11.30;;;8.60;69.80;;;;;;5113835;28;20092;-70
2021/03/10 01:40:15;;;;;;;18.10;11.05;;;8.60;69.80;;;;;;5114157;28;20060;-69
2021/03/10 01:42:41;;;;;;;17.00;10.75;;;8.60;69.80;;;;;;5112763;28;20035;-69
2021/03/10 01:45:09;;;;;;;19.90;11.02;;;8.60;69.80;;;;;;5113863;28;20020;-69
2021/03/10 01:47:38;;;;;;;22.58;11.90;;;8.70;69.90;;;;;;5113376;27;20118;-69
2021/03/10 01:50:05;;;;;;;19.42;11.32;;;8.60;69.70;;;;;;5112847;28;20077;-69
2021/03/10 01:52:33;;;;;;;21.70;11.45;;;8.60;69.70;;;;;;5113664;28;20492;-69
2021/03/10 01:54:59;;;;;;;18.65;11.10;;;8.60;69.70;;;;;;5113448;28;20023;-69
2021/03/10 01:57:25;;;;;;;22.10;11.38;;;8.70;69.80;;;;;;5113033;28;20028;-69
2021/03/10 01:59:52;;;;;;;24.38;11.85;;;8.60;69.70;;;;;;5113448;28;20020;-69
2021/03/10 02:02:17;;;;;;;18.58;11.10;;;8.60;69.70;;;;;;5113293;28;20486;-69
2021/03/10 02:04:43;;;;;;;20.23;11.93;;;8.70;69.70;;;;;;5112231;28;20073;-69
2021/03/10 02:07:13;;;;;;;20.33;12.00;;;8.60;69.70;;;;;;5113275;28;20031;-69
2021/03/10 02:10:19;;;;;;;21.58;11.18;;;8.70;69.80;;;;;;5113541;28;20084;-70
2021/03/10 02:13:09;;;;;;;21.63;12.15;;;8.60;69.80;;;;;;5102958;28;20497;-69
2021/03/10 02:15:59;;;;;;;21.58;12.73;;;8.60;69.90;;;;;;5113294;28;20028;-69
2021/03/10 02:18:41;;;;;;;23.25;12.80;;;8.60;70.00;;;;;;5112499;28;20031;-69
2021/03/10 02:21:22;;;;;;;25.00;12.48;;;8.60;70.00;;;;;;5113391;28;20031;-69
2021/03/10 02:24:25;;;;;;;22.88;13.45;;;8.60;70.10;;;;;;5113247;28;20107;-69
2021/03/10 02:27:32;;;;;;;23.63;14.23;;;8.60;70.20;;;;;;5069273;28;20398;-69
2021/03/10 02:30:11;;;;;;;26.25;13.30;;;8.60;70.30;;;;;;5100252;28;20051;-69
2021/03/10 02:32:40;;;;;;;25.88;13.52;;;8.50;70.30;;;;;;5098437;28;20024;-69
2021/03/10 02:35:08;;;;;;;23.20;13.88;;;8.60;70.50;;;;;;5113265;28;20032;-69
2021/03/10 02:37:43;;;;;;;26.58;13.43;;;8.50;70.60;;;;;;5113021;28;20031;-69
2021/03/10 02:40:11;;;;;;;23.38;12.27;;;8.50;70.70;;;;;;5112339;28;20035;-69
2021/03/10 02:42:38;;;;;;;25.20;13.02;;;8.50;70.80;;;;;;5098575;28;20023;-69
2021/03/10 02:45:07;;;;;;;25.40;13.90;;;8.50;70.90;;;;;;5113167;28;20035;-69
2021/03/10 02:47:34;;;;;;;27.55;13.98;;;8.50;71.00;;;;;;5112263;28;20059;-69
2021/03/10 02:50:00;;;;;;;23.35;11.82;;;8.50;71.00;;;;;;5112924;28;20027;-69
2021/03/10 02:52:26;;;;;;;28.63;13.65;;;8.50;71.00;;;;;;5112970;28;20037;-69
2021/03/10 02:54:52;;;;;;;27.63;15.43;;;8.50;71.10;;;;;;5111980;28;20402;-69
2021/03/10 02:57:19;;;;;;;28.27;15.05;;;8.50;71.10;;;;;;5103431;28;20541;-69
2021/03/10 02:59:46;;;;;;;26.35;13.65;;;8.50;71.10;;;;;;5107312;28;20461;-69
2021/03/10 03:02:13;;;;;;;26.17;12.30;;;8.50;71.10;;;;;;5113074;28;20055;-69
2021/03/10 03:04:39;;;;;;;33.70;15.77;;;8.50;71.10;;;;;;5112765;28;20410;-70
2021/03/10 03:07:07;;;;;;;28.25;14.85;;;8.50;71.20;;;;;;5105612;28;20513;-70
2021/03/10 03:09:34;;;;;;;26.13;13.95;;;8.60;71.20;;;;;;5092742;28;20139;-69
2021/03/10 03:12:03;;;;;;;18.20;8.57;;;8.50;71.20;;;;;;5111079;28;20031;-69
2021/03/10 03:14:30;;;;;;;31.85;15.45;;;8.50;71.40;;;;;;5112203;28;20126;-69
2021/03/10 03:17:00;;;;;;;27.85;15.05;;;8.50;71.40;;;;;;5114988;28;20027;-69
2021/03/10 03:19:27;;;;;;;28.02;15.60;;;8.50;71.50;;;;;;5116713;28;20031;-69
2021/03/10 03:21:53;;;;;;;32.95;17.30;;;8.50;71.50;;;;;;5115633;28;20028;-69
2021/03/10 03:24:23;;;;;;;33.35;15.82;;;8.50;71.60;;;;;;5116719;28;20028;-69
2021/03/10 03:26:50;;;;;;;29.90;15.82;;;8.50;71.70;;;;;;5116397;28;20038;-69
2021/03/10 03:29:16;;;;;;;10.75;4.53;;;8.50;71.60;;;;;;5108197;28;20036;-69
2021/03/10 03:31:43;;;;;;;19.58;11.55;;;8.50;71.70;;;;;;5112931;28;20031;-70
2021/03/10 03:34:09;;;;;;;21.20;11.45;;;8.40;71.60;;;;;;5116228;28;20023;-69
2021/03/10 03:36:36;;;;;;;24.70;11.80;;;8.50;71.60;;;;;;5115380;28;20028;-69
2021/03/10 03:39:04;;;;;;;16.10;9.95;;;8.40;71.60;;;;;;5116480;28;20038;-70
2021/03/10 03:41:36;;;;;;;14.95;8.88;;;8.40;71.70;;;;;;5116053;28;20024;-70
2021/03/10 03:44:03;;;;;;;17.85;9.30;;;8.40;71.90;;;;;;5115623;28;20032;-69
2021/03/10 03:46:30;;;;;;;16.08;9.45;;;8.30;72.20;;;;;;5101512;28;20085;-69
2021/03/10 03:49:01;;;;;;;16.13;8.60;;;8.30;72.30;;;;;;5115466;28;20122;-69
2021/03/10 03:51:30;;;;;;;17.42;9.18;;;8.30;72.30;;;;;;5116140;28;20032;-70
2021/03/10 03:54:04;;;;;;;15.05;8.05;;;8.20;72.10;;;;;;5116142;28;20385;-69
2021/03/10 03:56:30;;;;;;;14.07;7.90;;;8.20;72.00;;;;;;5115082;28;20031;-69
2021/03/10 03:58:56;;;;;;;11.18;6.80;;;8.20;72.00;;;;;;5115809;28;20036;-69
2021/03/10 04:01:23;;;;;;;14.32;7.25;;;8.20;72.20;;;;;;5115796;27;20428;-69
2021/03/10 04:03:49;;;;;;;12.20;7.32;;;8.10;72.20;;;;;;5100218;28;20053;-69
2021/03/10 04:06:15;;;;;;;11.75;6.80;;;8.10;72.10;;;;;;5115808;28;20118;-69
2021/03/10 04:08:42;;;;;;;14.27;7.82;;;8.10;72.00;;;;;;5113546;28;20035;-69
2021/03/10 04:11:10;;;;;;;12.80;7.88;;;8.10;72.00;;;;;;5102921;28;20024;-69
2021/03/10 04:13:36;;;;;;;13.45;7.72;;;8.10;71.80;;;;;;5115399;28;20042;-70
2021/03/10 04:16:03;;;;;;;12.52;7.78;;;8.10;71.50;;;;;;5115550;28;20106;-69
2021/03/10 04:18:29;;;;;;;11.52;7.55;;;8.10;71.20;;;;;;5114911;28;20039;-69
2021/03/10 04:20:54;;;;;;;12.70;7.55;;;8.10;70.90;;;;;;5115359;28;20031;-69
2021/03/10 04:23:20;;;;;;;12.90;7.65;;;8.10;70.50;;;;;;5115382;28;20046;-69
2021/03/10 04:25:46;;;;;;;13.93;7.75;;;8.10;70.30;;;;;;5114421;28;20020;-69
2021/03/10 04:28:11;;;;;;;14.00;6.85;;;8.20;70.00;;;;;;5114680;28;20390;-70
2021/03/10 04:30:37;;;;;;;12.73;7.85;;;8.10;69.90;;;;;;5114971;28;20030;-69
2021/03/10 04:33:03;;;;;;;12.77;7.57;;;8.10;69.80;;;;;;5114507;28;20749;-70
2021/03/10 04:35:29;;;;;;;13.45;8.02;;;8.10;70.40;;;;;;5115051;28;20063;-69
2021/03/10 04:37:54;;;;;;;11.88;7.28;;;8.10;70.50;;;;;;5114749;28;20085;-69
2021/03/10 04:40:20;;;;;;;13.00;7.38;;;8.10;70.60;;;;;;5114384;28;20470;-69
2021/03/10 04:42:46;;;;;;;14.18;6.70;;;8.00;70.50;;;;;;5114848;28;20036;-69
2021/03/10 04:45:13;;;;;;;12.85;7.03;;;8.00;70.80;;;;;;5114401;28;20463;-69
2021/03/10 04:47:44;;;;;;;11.93;7.20;;;7.90;70.90;;;;;;5115028;28;20043;-69
2021/03/10 04:50:12;;;;;;;13.32;7.47;;;7.90;71.10;;;;;;5101102;28;20030;-69
2021/03/10 04:52:37;;;;;;;10.18;6.75;;;7.90;71.10;;;;;;5114115;28;20028;-69
2021/03/10 04:55:06;;;;;;;13.35;8.02;;;7.80;71.20;;;;;;5114682;28;20015;-69
2021/03/10 04:57:31;;;;;;;8.98;5.43;;;7.80;71.40;;;;;;5114730;28;20431;-69
2021/03/10 04:59:57;;;;;;;13.52;8.40;;;7.80;71.50;;;;;;5113652;28;20107;-69
2021/03/10 05:02:23;;;;;;;14.50;7.80;;;7.80;71.30;;;;;;5114867;28;20031;-69
2021/03/10 05:04:48;;;;;;;11.90;7.63;;;7.70;71.00;;;;;;5114246;28;20393;-69
2021/03/10 05:07:14;;;;;;;14.02;7.93;;;7.80;70.90;;;;;;5113843;28;20032;-69
2021/03/10 05:09:40;;;;;;;12.90;7.20;;;7.80;70.90;;;;;;5114551;28;20458;-69
2021/03/10 05:12:06;;;;;;;17.35;7.93;;;7.70;70.80;;;;;;5114009;28;20123;-69
2021/03/10 05:14:32;;;;;;;14.43;7.18;;;7.70;70.70;;;;;;5113619;28;20374;-69
2021/03/10 05:16:58;;;;;;;13.57;7.38;;;7.70;70.70;;;;;;5114260;28;20031;-69
2021/03/10 05:19:23;;;;;;;15.32;8.18;;;7.70;70.70;;;;;;5114408;28;20031;-69
2021/03/10 05:21:49;;;;;;;15.10;9.23;;;7.70;70.50;;;;;;5098965;28;20178;-69
2021/03/10 05:24:15;;;;;;;13.55;7.93;;;7.70;70.30;;;;;;5114163;27;20482;-69
2021/03/10 05:26:43;;;;;;;13.85;8.00;;;7.70;70.10;;;;;;5113967;28;20031;-69
2021/03/10 05:29:09;;;;;;;13.98;8.13;;;7.80;70.10;;;;;;5112821;28;20057;-69
2021/03/10 05:31:34;;;;;;;13.65;7.82;;;7.80;70.00;;;;;;5114107;28;20020;-69
2021/03/10 05:34:03;;;;;;;15.32;9.02;;;7.80;70.00;;;;;;5113970;28;20069;-69
2021/03/10 05:36:29;;;;;;;13.18;8.18;;;7.80;69.90;;;;;;5107331;28;20035;-69
2021/03/10 05:38:54;;;;;;;12.57;7.82;;;7.80;69.80;;;;;;5104893;28;20036;-69
2021/03/10 05:41:20;;;;;;;13.93;8.05;;;7.70;70.00;;;;;;5113675;28;20028;-69
2021/03/10 05:43:48;;;;;;;16.52;8.43;;;7.70;70.00;;;;;;5112984;27;20035;-69
2021/03/10 05:46:13;;;;;;;14.93;8.77;;;7.70;69.80;;;;;;5113866;28;20073;-69
2021/03/10 05:48:45;;;;;;;16.10;8.80;;;7.70;69.80;;;;;;5113154;28;20445;-69
2021/03/10 05:51:11;;;;;;;18.15;8.77;;;7.70;69.80;;;;;;5113441;28;20028;-69
2021/03/10 05:53:43;;;;;;;17.58;10.00;;;7.70;69.80;;;;;;5113739;28;20435;-69
2021/03/10 05:56:09;;;;;;;15.07;9.00;;;7.60;69.80;;;;;;5112748;28;20410;-69
2021/03/10 05:58:34;;;;;;;14.27;9.05;;;7.70;70.00;;;;;;5113592;28;20039;-69
2021/03/10 06:01:00;;;;;;;14.30;9.23;;;7.60;70.10;;;;;;5113699;28;20024;-70
2021/03/10 06:03:26;;;;;;;17.75;9.77;;;7.60;70.30;;;;;;5112052;28;20023;-69
2021/03/10 06:06:01;;;;;;;16.92;10.38;;;7.60;70.30;;;;;;5113594;28;20062;-69
2021/03/10 06:08:31;;;;;;;15.38;8.80;;;7.50;70.40;;;;;;5112972;28;20043;-69
2021/03/10 06:10:57;;;;;;;17.27;9.48;;;7.50;70.60;;;;;;5111900;28;20023;-69
2021/03/10 06:13:30;;;;;;;18.33;9.43;;;7.50;70.70;;;;;;5113204;28;20035;-69
2021/03/10 06:16:01;;;;;;;17.90;9.48;;;7.40;70.70;;;;;;5113201;28;20059;-68
2021/03/10 06:18:32;;;;;;;16.25;8.30;;;7.40;70.90;;;;;;5111698;28;20028;-70
2021/03/10 06:21:07;;;;;;;18.55;9.88;;;7.40;71.00;;;;;;5104141;28;20028;-74
2021/03/10 06:23:48;;;;;;;12.90;6.15;;;7.40;71.20;;;;;;5095641;28;20032;-71
2021/03/10 06:26:24;;;;;;;14.68;8.75;;;7.50;72.20;;;;;;5096221;28;20032;-73
2021/03/10 06:28:51;;;;;;;15.35;8.95;;;7.40;71.60;;;;;;5105622;28;20091;-72
2021/03/10 06:31:34;;;;;;;18.35;10.93;;;7.40;71.70;;;;;;5104061;28;20027;-72
2021/03/10 06:34:01;;;;;;;17.00;9.88;;;7.40;71.90;;;;;;5104523;28;20382;-72
2021/03/10 06:36:28;;;;;;;16.40;8.63;;;7.40;72.00;;;;;;5104013;28;20036;-72
2021/03/10 06:38:54;;;;;;;18.25;10.82;;;7.40;72.10;;;;;;5104397;28;20379;-72
2021/03/10 06:41:37;;;;;;;21.38;10.52;;;7.30;72.20;;;;;;5101234;28;20024;-70
2021/03/10 06:44:17;;;;;;;15.95;9.63;;;7.30;72.30;;;;;;5095097;28;20034;-71
2021/03/10 06:47:09;;;;;;;28.77;11.13;;;7.40;72.40;;;;;;5097572;28;20035;-71
2021/03/10 06:49:35;;;;;;;16.67;9.77;;;7.30;72.50;;;;;;5107459;28;20399;-78
2021/03/10 06:52:06;;;;;;;18.25;10.13;;;7.30;72.60;;;;;;5114948;28;20061;-69
2021/03/10 06:54:32;;;;;;;17.52;10.48;;;7.30;72.70;;;;;;5116677;28;20073;-70
2021/03/10 06:57:05;;;;;;;16.75;9.52;;;7.30;72.80;;;;;;5116281;28;20458;-75
2021/03/10 06:59:44;;;;;;;;;;;7.30;73.10;;;;;;5116276;28;20031;-74
2021/03/10 07:02:28;;;;;;;21.80;11.20;;;7.30;73.20;;;;;;5114200;28;19907;-75
2021/03/10 07:04:57;;;;;;;19.20;11.30;;;7.30;73.00;;;;;;5115240;28;20073;-75
2021/03/10 07:07:28;;;;;;;17.25;10.45;;;7.30;73.20;;;;;;5115069;28;20028;-75
2021/03/10 07:09:54;;;;;;;23.55;11.52;;;7.30;73.40;;;;;;5113439;27;20035;-76
2021/03/10 07:12:25;;;;;;;18.95;11.40;;;7.30;73.40;;;;;;5113499;28;20031;-76
2021/03/10 07:14:54;;;;;;;18.50;11.82;;;7.30;73.60;;;;;;5112134;28;20030;-71
2021/03/10 07:17:23;;;;;;;18.25;10.57;;;7.30;73.70;;;;;;5099373;28;20051;-72
2021/03/10 07:19:49;;;;;;;17.30;9.95;;;7.30;73.80;;;;;;5096408;28;20410;-76
2021/03/10 07:22:29;;;;;;;18.73;11.50;;;7.30;73.90;;;;;;5100279;28;20028;-72
2021/03/10 07:25:08;;;;;;;20.35;10.43;;;7.20;74.00;;;;;;5100598;28;20032;-71
2021/03/10 07:27:55;;;;;;;46.42;16.20;;;7.30;74.20;;;;;;5096659;28;20029;-70
2021/03/10 07:30:37;;;;;;;8.88;5.10;;;7.30;74.20;;;;;;5096774;28;20044;-71
2021/03/10 07:33:18;;;;;;;22.05;10.55;;;7.20;74.50;;;;;;5096452;28;20028;-71
2021/03/10 07:35:55;;;;;;;18.83;9.88;;;7.30;74.70;;;;;;5096546;28;20428;-71
2021/03/10 07:38:23;;;;;;;34.58;12.65;;;7.30;74.70;;;;;;5110558;28;20466;-71
2021/03/10 07:41:01;;;;;;;20.48;8.63;;;7.30;74.70;;;;;;5114646;28;20035;-73
2021/03/10 07:43:34;;;;;;;25.52;10.23;;;7.30;74.80;;;;;;5107802;28;20019;-71
2021/03/10 07:46:02;;;;;;;19.20;9.20;;;7.30;74.80;;;;;;5108987;28;20106;-71
2021/03/10 07:48:35;;;;;;;18.45;8.88;;;7.30;74.70;;;;;;5113768;28;20116;-72
2021/03/10 07:51:00;;;;;;;18.55;9.82;;;7.30;74.80;;;;;;5114395;28;20523;-71
2021/03/10 07:53:38;;;;;;;16.75;10.23;;;7.30;74.70;;;;;;5114515;28;20031;-72
2021/03/10 07:56:05;;;;;;;19.90;11.60;;;7.40;74.90;;;;;;5114591;28;20135;-71
2021/03/10 07:58:32;;;;;;;19.25;11.10;;;7.40;74.90;;;;;;5115653;28;20024;-72
2021/03/10 08:00:58;;;;;;;21.00;12.38;;;7.40;74.80;;;;;;5114893;28;20036;-71
2021/03/10 08:03:32;;;;;;;21.58;11.60;;;7.40;74.70;;;;;;5114310;28;20024;-72
2021/03/10 08:06:06;;;;;;;20.70;10.95;;;7.40;74.80;;;;;;5115714;27;20027;-72
2021/03/10 08:08:43;;;;;;;18.33;9.45;;;7.40;74.90;;;;;;5115407;28;20035;-72
2021/03/10 08:11:16;;;;;;;11.80;5.38;;;7.50;75.00;;;;;;5114661;28;20118;-72
2021/03/10 08:13:42;;;;;;;;;;;7.50;75.10;;;;;;5115657;28;20355;-71
2021/03/10 08:16:10;;;;;;;18.67;10.43;;;7.50;75.00;;;;;;5115526;27;19941;-72
2021/03/10 08:18:39;;;;;;;6.85;3.30;;;7.60;74.90;;;;;;5115056;28;20035;-72
2021/03/10 08:21:13;;;;;;;19.25;10.45;;;7.50;75.00;;;;;;5115410;28;20063;-72
2021/03/10 08:23:39;;;;;;;19.88;10.70;;;7.50;75.20;;;;;;5114658;28;20371;-72
2021/03/10 08:26:07;;;;;;;18.45;10.15;;;7.50;75.30;;;;;;5115075;28;20031;-71
2021/03/10 08:28:35;;;;;;;9.32;5.35;;;7.50;75.40;;;;;;5114758;28;20044;-72
2021/03/10 08:31:03;;;;;;;18.85;11.27;;;7.60;75.70;;;;;;5114727;28;20023;-72
2021/03/10 08:33:30;;;;;;;24.52;12.63;;;7.60;75.70;;;;;;5113749;28;20015;-69
2021/03/10 08:35:56;;;;;;;14.40;7.95;;;7.60;75.50;;;;;;5113385;28;20035;-69
2021/03/10 08:38:30;;;;;;;23.98;9.07;;;7.60;75.60;;;;;;5101251;28;20378;-69
2021/03/10 08:41:05;;;;;;;16.63;8.93;;;7.60;76.00;;;;;;5114584;28;20077;-69
2021/03/10 08:43:31;;;;;;;8.35;5.25;;;7.60;76.00;;;;;;5114889;28;20525;-69
2021/03/10 08:45:57;;;;;;;17.67;9.40;;;7.70;76.20;;;;;;5100223;28;20028;-69
2021/03/10 08:48:23;;;;;;;17.50;10.00;;;7.60;76.20;;;;;;5114552;28;20035;-69
2021/03/10 08:50:51;;;;;;;26.90;11.40;;;7.60;76.30;;;;;;5114785;28;20027;-69
2021/03/10 08:53:17;;;;;;;12.02;6.88;;;7.70;76.30;;;;;;5109717;28;20427;-69
2021/03/10 08:55:47;;;;;;;14.13;7.93;;;7.70;76.30;;;;;;5104042;28;20024;-69
2021/03/10 08:58:17;;;;;;;3.42;2.72;;;7.70;76.30;;;;;;5113240;28;20034;-69
2021/03/10 09:00:46;;;;;;;14.23;7.15;;;7.70;76.30;;;;;;5112739;28;20027;-69
2021/03/10 09:03:16;;;;;;;12.18;7.47;;;7.70;76.30;;;;;;5114444;28;20023;-69
2021/03/10 09:05:44;;;;;;;19.13;11.07;;;7.70;76.40;;;;;;5113842;28;20027;-69
2021/03/10 09:08:14;;;;;;;14.15;8.50;;;7.80;76.30;;;;;;5112566;28;20107;-70
2021/03/10 09:10:49;;;;;;;18.55;10.65;;;7.80;76.50;;;;;;5114007;28;20356;-69
2021/03/10 09:13:40;;;;;;;22.75;11.43;;;7.80;76.50;;;;;;5109711;28;20474;-69
2021/03/10 09:16:10;;;;;;;8.75;3.80;;;7.80;76.40;;;;;;5113047;28;20024;-69
2021/03/10 09:18:42;;;;;;;22.77;9.48;;;7.90;76.40;;;;;;5112733;28;20385;-69
2021/03/10 09:21:08;;;;;;;21.77;10.18;;;7.90;76.40;;;;;;5112298;28;20030;-69
2021/03/10 09:23:40;;;;;;;17.10;9.38;;;7.90;76.50;;;;;;5112644;28;20031;-69
2021/03/10 09:26:07;;;;;;;22.30;11.55;;;8.00;76.50;;;;;;5112847;28;20026;-69
2021/03/10 09:28:41;;;;;;;9.23;3.45;;;7.90;76.40;;;;;;5111423;28;20044;-69
2021/03/10 09:31:16;;;;;;;13.77;7.50;;;8.00;76.50;;;;;;5112782;28;20036;-69
2021/03/10 09:33:58;;;;;;;7.60;4.40;;;8.00;76.40;;;;;;5111768;28;20730;-70
2021/03/10 09:36:28;;;;;;;13.45;6.75;;;8.10;76.40;;;;;;5112633;28;20394;-69
2021/03/10 09:38:59;;;;;;;24.38;10.98;;;8.10;76.30;;;;;;5112512;28;20046;-70
2021/03/10 09:41:34;;;;;;;15.85;6.10;;;8.10;76.20;;;;;;5111861;28;20020;-69
2021/03/10 09:44:08;;;;;;;14.00;7.82;;;8.10;76.20;;;;;;5112488;28;20070;-69
2021/03/10 09:46:43;;;;;;;17.75;7.78;;;8.10;76.20;;;;;;5112333;28;20051;-70
2021/03/10 09:49:11;;;;;;;17.23;10.48;;;8.20;76.20;;;;;;5112794;28;20045;-69
2021/03/10 09:51:46;;;;;;;20.20;10.52;;;8.20;76.20;;;;;;5111824;28;20088;-70
2021/03/10 09:54:12;;;;;;;22.30;11.32;;;8.20;76.20;;;;;;5112198;28;20031;-71
2021/03/10 09:56:51;;;;;;;24.95;12.07;;;8.20;76.10;;;;;;5110100;28;20049;-69
2021/03/10 09:59:31;;;;;;;13.27;7.22;;;8.20;76.30;;;;;;5113690;28;20435;-69
2021/03/10 10:01:57;;;;;;;18.52;10.57;;;8.30;76.10;;;;;;5111156;28;20032;-70
2021/03/10 10:04:28;;;;;;;17.98;8.45;;;8.30;76.20;;;;;;5111955;28;20077;-69
2021/03/10 10:06:56;;;;;;;10.90;6.05;;;8.20;76.30;;;;;;5113061;28;20141;-69
2021/03/10 10:09:30;;;;;;;26.33;13.02;;;8.30;76.30;;;;;;5100995;28;20028;-69
2021/03/10 10:12:01;;;;;;;;;;;8.30;76.60;;;;;;5110602;28;20382;-69
2021/03/10 10:14:38;;;;;;;18.17;8.88;;;8.30;76.60;;;;;;5112113;28;20412;-69
2021/03/10 10:17:05;;;;;;;22.42;11.82;;;8.30;76.60;;;;;;5112272;28;20055;-69
2021/03/10 10:19:31;;;;;;;19.63;10.18;;;8.30;76.90;;;;;;5101458;28;20016;-69
2021/03/10 10:21:57;;;;;;;24.15;9.82;;;8.30;76.90;;;;;;5107042;28;20038;-69
2021/03/10 10:24:22;;;;;;;8.90;4.03;;;8.40;77.00;;;;;;5100085;28;20464;-69
2021/03/10 10:26:49;;;;;;;14.48;8.13;;;8.40;76.90;;;;;;5112926;28;20386;-69
2021/03/10 10:29:21;;;;;;;23.17;10.35;;;8.40;77.10;;;;;;5112479;28;20039;-71
2021/03/10 10:31:50;;;;;;;17.98;9.45;;;8.40;77.30;;;;;;5111879;28;20555;-70
2021/03/10 10:34:17;;;;;;;14.70;8.07;;;8.40;77.40;;;;;;5111216;28;20119;-70
2021/03/10 10:36:46;;;;;;;19.27;7.47;;;8.40;77.50;;;;;;5110722;28;20557;-71
2021/03/10 10:39:12;;;;;;;22.48;10.73;;;8.40;77.70;;;;;;5104147;28;20475;-69
2021/03/10 10:41:41;;;;;;;18.83;8.95;;;8.40;77.90;;;;;;5099130;28;20035;-68
2021/03/10 10:44:07;;;;;;;9.73;5.30;;;8.40;77.90;;;;;;5106790;28;20048;-68
2021/03/10 10:46:33;;;;;;;20.35;6.88;;;8.50;78.00;;;;;;5107969;28;20027;-68
2021/03/10 10:48:58;;;;;;;21.65;12.13;;;8.50;78.20;;;;;;5104931;28;20044;-69
2021/03/10 10:51:33;;;;;;;17.05;8.10;;;8.50;78.40;;;;;;5110316;28;20027;-70
2021/03/10 10:54:05;;;;;;;35.88;13.07;;;8.50;78.50;;;;;;5111146;28;20035;-70
2021/03/10 10:56:31;;;;;;;18.98;11.10;;;8.50;78.80;;;;;;5109556;28;20032;-70
2021/03/10 10:59:04;;;;;;;9.77;5.37;;;8.50;78.80;;;;;;5108335;28;20024;-69
2021/03/10 11:01:36;;;;;;;8.52;4.55;;;8.50;78.80;;;;;;5111279;28;20093;-70
2021/03/10 11:04:02;;;;;;;20.30;8.15;;;8.60;78.70;;;;;;5110850;28;20027;-70
2021/03/10 11:06:28;;;;;;;16.20;8.20;;;8.60;78.70;;;;;;5109898;28;20513;-71
2021/03/10 11:08:54;;;;;;;12.88;7.10;;;8.60;78.60;;;;;;5109251;28;20092;-71
2021/03/10 11:11:20;;;;;;;21.20;8.75;;;8.70;78.60;;;;;;5108784;28;20027;-71
2021/03/10 11:13:52;;;;;;;26.85;13.00;;;8.70;78.60;;;;;;5110067;28;20031;-81
2021/03/10 11:16:34;;;;;;;20.60;11.10;;;8.80;78.70;;;;;;5109646;28;20501;-69
2021/03/10 11:19:12;;;;;;;23.80;12.32;;;8.80;78.70;;;;;;5096236;28;20023;-70
2021/03/10 11:21:42;;;;;;;25.30;11.55;;;8.80;78.80;;;;;;5110929;28;20481;-69
2021/03/10 11:24:12;;;;;;;18.10;8.38;;;8.80;78.90;;;;;;5099161;28;20485;-70
2021/03/10 11:26:39;;;;;;;16.35;8.43;;;8.90;78.90;;;;;;5112031;28;20385;-70
2021/03/10 11:29:07;;;;;;;20.23;11.25;;;8.90;79.00;;;;;;5110831;28;20076;-70
2021/03/10 11:31:34;;;;;;;9.80;5.45;;;8.90;78.90;;;;;;5112195;28;20049;-70
2021/03/10 11:34:00;;;;;;;17.80;8.55;;;9.00;79.00;;;;;;5111310;28;20508;-70
2021/03/10 11:36:27;;;;;;;13.93;7.72;;;8.90;79.00;;;;;;5111120;28;20080;-69
2021/03/10 11:38:55;;;;;;;17.33;9.15;;;8.90;79.10;;;;;;5115007;28;20031;-74
2021/03/10 11:41:23;;;;;;;16.02;7.95;;;9.00;79.30;;;;;;5114115;28;20015;-72
2021/03/10 11:43:49;;;;;;;28.85;10.40;;;9.00;79.40;;;;;;5116181;28;20119;-72
2021/03/10 11:46:15;;;;;;;20.10;10.05;;;9.00;79.40;;;;;;5115181;28;20118;-76
2021/03/10 11:48:41;;;;;;;16.33;8.38;;;9.00;79.30;;;;;;5115347;28;20543;-70
2021/03/10 11:51:07;;;;;;;20.38;10.07;;;9.10;79.40;;;;;;5115187;28;20020;-70
2021/03/10 11:53:34;;;;;;;11.02;5.63;;;9.10;79.30;;;;;;5115554;28;20466;-70
2021/03/10 11:56:00;;;;;;;20.88;10.48;;;9.10;79.30;;;;;;5114627;28;20023;-71
2021/03/10 11:58:27;;;;;;;29.38;15.63;;;9.10;79.30;;;;;;5103659;28;20024;-70
2021/03/10 12:00:56;;;;;;;20.45;7.70;;;9.20;79.90;;;;;;5095276;28;20039;-71
2021/03/10 12:03:26;;;;;;;18.50;8.18;;;9.20;79.20;;;;;;5096360;28;20470;-71
2021/03/10 12:06:06;;;;;;;18.70;7.07;;;9.20;79.30;;;;;;5113378;28;20027;-71
2021/03/10 12:08:32;;;;;;;23.13;11.23;;;9.30;79.40;;;;;;5114387;28;20061;-71
2021/03/10 12:10:58;;;;;;;24.00;11.20;;;9.20;79.40;;;;;;5114982;28;20027;-70
2021/03/10 12:13:25;;;;;;;13.68;7.13;;;9.30;79.40;;;;;;5115033;28;20027;-69
2021/03/10 12:15:55;;;;;;;22.48;10.57;;;9.30;79.50;;;;;;5112059;28;20065;-70
2021/03/10 12:18:22;;;;;;;29.65;15.93;;;9.30;79.50;;;;;;5114394;28;20374;-70
2021/03/10 12:20:48;;;;;;;18.05;8.18;;;9.30;79.40;;;;;;5114345;28;20032;-70
2021/03/10 12:23:15;;;;;;;21.63;10.80;;;9.30;79.30;;;;;;5114170;28;20470;-70
2021/03/10 12:25:44;;;;;;;18.50;9.27;;;9.40;79.30;;;;;;5114699;28;20059;-70
2021/03/10 12:28:10;;;;;;;19.42;10.48;;;9.40;79.30;;;;;;5114794;28;20045;-70
2021/03/10 12:30:35;;;;;;;15.02;6.93;;;9.50;79.30;;;;;;5113792;28;20476;-70
2021/03/10 12:33:01;;;;;;;19.63;9.75;;;9.50;79.20;;;;;;5112111;28;20032;-70
2021/03/10 12:35:28;;;;;;;22.63;12.35;;;9.50;79.20;;;;;;5114656;28;20039;-70
2021/03/10 12:37:54;;;;;;;25.10;13.45;;;9.60;79.10;;;;;;5111308;28;20031;-70
2021/03/10 12:40:22;;;;;;;29.90;14.93;;;9.60;79.00;;;;;;5114675;28;20382;-70
2021/03/10 12:42:47;;;;;;;19.45;9.57;;;9.70;78.90;;;;;;5114752;28;20038;-71
2021/03/10 12:45:13;;;;;;;13.73;5.70;;;9.70;78.80;;;;;;5114232;28;20021;-75
2021/03/10 12:47:39;;;;;;;16.85;8.65;;;9.70;78.80;;;;;;5109113;28;20048;-70
2021/03/10 12:50:06;;;;;;;26.65;12.88;;;9.70;78.90;;;;;;5103137;28;20020;-70
2021/03/10 12:52:34;;;;;;;26.83;11.57;;;9.70;78.80;;;;;;5093651;28;20048;-70